DAL22 KHVN-KPHL
Flight info
| Callsign | DAL22 |
|---|---|
| Flight time | 0h 47m |
| Altitude | 16000 |
| Route | BEADS T320 BRIGS JIIMS4 |
| Aircraft | B738/M-SDE2E3FGHIRWXY/LB1 |
Departure
| Time | 2026-05-06 18:25 |
|---|---|
| Airport | Tweed New Haven Airport (KHVN) |
Arrival
| Time | 2026-05-06 19:13 |
|---|---|
| Airport | Philadelphia International Airport (KPHL) |
| Time | Latitude | Longitude | Altitude | Speed | Heading |
|---|---|---|---|---|---|
| 2026-05-06 18:02 | 41.26777 | -72.88418 | 19 ft | 0 kts | 216° |
| 2026-05-06 18:15 | 41.26786 | -72.88404 | 20 ft | 2 kts | 283° |
| 2026-05-06 18:15 | 41.26785 | -72.88400 | 19 ft | 0 kts | 301° |
| 2026-05-06 18:18 | 41.26814 | -72.88456 | 17 ft | 14 kts | 311° |
| 2026-05-06 18:19 | 41.26877 | -72.88538 | 18 ft | 10 kts | 315° |
| 2026-05-06 18:19 | 41.26919 | -72.88610 | 18 ft | 9 kts | 276° |
| 2026-05-06 18:19 | 41.26895 | -72.88640 | 17 ft | 4 kts | 184° |
| 2026-05-06 18:19 | 41.26865 | -72.88641 | 16 ft | 4 kts | 182° |
| 2026-05-06 18:20 | 41.26835 | -72.88643 | 16 ft | 5 kts | 182° |
| 2026-05-06 18:20 | 41.26784 | -72.88645 | 14 ft | 9 kts | 183° |
| 2026-05-06 18:20 | 41.26721 | -72.88651 | 13 ft | 9 kts | 184° |
| 2026-05-06 18:20 | 41.26659 | -72.88655 | 12 ft | 9 kts | 181° |
| 2026-05-06 18:21 | 41.26599 | -72.88657 | 14 ft | 8 kts | 174° |
| 2026-05-06 18:21 | 41.26555 | -72.88609 | 15 ft | 8 kts | 132° |
| 2026-05-06 18:21 | 41.26518 | -72.88552 | 16 ft | 8 kts | 132° |
| 2026-05-06 18:21 | 41.26481 | -72.88498 | 15 ft | 8 kts | 131° |
| 2026-05-06 18:22 | 41.26442 | -72.88455 | 15 ft | 8 kts | 179° |
| 2026-05-06 18:22 | 41.26398 | -72.88491 | 17 ft | 7 kts | 214° |
| 2026-05-06 18:22 | 41.26357 | -72.88530 | 16 ft | 7 kts | 217° |
| 2026-05-06 18:22 | 41.26303 | -72.88582 | 15 ft | 13 kts | 215° |
| 2026-05-06 18:23 | 41.26211 | -72.88623 | 16 ft | 14 kts | 189° |
| 2026-05-06 18:23 | 41.26116 | -72.88643 | 17 ft | 13 kts | 189° |
| 2026-05-06 18:23 | 41.26027 | -72.88664 | 16 ft | 13 kts | 190° |
| 2026-05-06 18:23 | 41.25924 | -72.88688 | 15 ft | 17 kts | 191° |
| 2026-05-06 18:24 | 41.25808 | -72.88712 | 17 ft | 17 kts | 184° |
| 2026-05-06 18:24 | 41.25698 | -72.88719 | 14 ft | 15 kts | 183° |
| 2026-05-06 18:24 | 41.25612 | -72.88752 | 10 ft | 11 kts | 250° |
| 2026-05-06 18:24 | 41.25658 | -72.88819 | 13 ft | 17 kts | 357° |
| 2026-05-06 18:25 | 41.26081 | -72.88793 | 18 ft | 107 kts | 2° |
| 2026-05-06 18:25 | 41.27103 | -72.88725 | 113 ft | 176 kts | 4° |
| 2026-05-06 18:25 | 41.28436 | -72.88626 | 792 ft | 206 kts | 2° |
| 2026-05-06 18:25 | 41.29941 | -72.88490 | 1354 ft | 221 kts | 354° |
| 2026-05-06 18:26 | 41.31461 | -72.88518 | 1703 ft | 223 kts | 353° |
| 2026-05-06 18:26 | 41.33154 | -72.88339 | 1888 ft | 263 kts | 2° |
| 2026-05-06 18:26 | 41.35022 | -72.88077 | 1964 ft | 274 kts | 2° |
| 2026-05-06 18:26 | 41.36939 | -72.87794 | 2587 ft | 282 kts | 2° |
| 2026-05-06 18:27 | 41.38912 | -72.87469 | 3278 ft | 294 kts | 4° |
| 2026-05-06 18:27 | 41.40855 | -72.86477 | 4118 ft | 308 kts | 37° |
| 2026-05-06 18:27 | 41.42194 | -72.84276 | 4987 ft | 308 kts | 72° |
| 2026-05-06 18:27 | 41.42529 | -72.81532 | 5850 ft | 295 kts | 107° |
| 2026-05-06 18:28 | 41.41819 | -72.79129 | 6792 ft | 271 kts | 136° |
| 2026-05-06 18:28 | 41.40595 | -72.77248 | 7473 ft | 268 kts | 148° |
| 2026-05-06 18:28 | 41.39114 | -72.75851 | 7804 ft | 253 kts | 165° |
| 2026-05-06 18:28 | 41.37492 | -72.75135 | 7876 ft | 248 kts | 174° |
| 2026-05-06 18:29 | 41.35804 | -72.74574 | 7871 ft | 251 kts | 175° |
| 2026-05-06 18:29 | 41.34117 | -72.74032 | 7874 ft | 248 kts | 175° |
| 2026-05-06 18:29 | 41.32424 | -72.73490 | 8169 ft | 253 kts | 175° |
| 2026-05-06 18:29 | 41.30700 | -72.72938 | 9072 ft | 254 kts | 176° |
| 2026-05-06 18:30 | 41.28968 | -72.72378 | 9961 ft | 258 kts | 176° |
| 2026-05-06 18:30 | 41.27164 | -72.71802 | 10434 ft | 279 kts | 176° |
| 2026-05-06 18:30 | 41.25180 | -72.71177 | 10658 ft | 307 kts | 175° |
| 2026-05-06 18:30 | 41.23003 | -72.70483 | 10811 ft | 335 kts | 174° |
| 2026-05-06 18:31 | 41.20676 | -72.69726 | 11131 ft | 351 kts | 174° |
| 2026-05-06 18:31 | 41.18304 | -72.68940 | 11723 ft | 358 kts | 173° |
| 2026-05-06 18:31 | 41.15869 | -72.68129 | 12434 ft | 362 kts | 173° |
| 2026-05-06 18:31 | 41.13405 | -72.67312 | 13081 ft | 367 kts | 174° |
| 2026-05-06 18:32 | 41.10907 | -72.66488 | 13703 ft | 373 kts | 174° |
| 2026-05-06 18:32 | 41.08373 | -72.65656 | 14269 ft | 378 kts | 174° |
| 2026-05-06 18:32 | 41.05797 | -72.64812 | 14782 ft | 383 kts | 174° |
| 2026-05-06 18:32 | 41.03188 | -72.63959 | 15334 ft | 388 kts | 174° |
| 2026-05-06 18:33 | 41.00550 | -72.63097 | 15875 ft | 393 kts | 174° |
| 2026-05-06 18:33 | 40.97908 | -72.62236 | 15991 ft | 401 kts | 174° |
| 2026-05-06 18:33 | 40.95153 | -72.61342 | 16007 ft | 411 kts | 173° |
| 2026-05-06 18:33 | 40.92354 | -72.60430 | 16013 ft | 413 kts | 173° |
| 2026-05-06 18:34 | 40.89581 | -72.59521 | 15992 ft | 409 kts | 173° |
| 2026-05-06 18:34 | 40.86821 | -72.58618 | 16003 ft | 407 kts | 173° |
| 2026-05-06 18:34 | 40.84074 | -72.57725 | 15997 ft | 407 kts | 173° |
| 2026-05-06 18:34 | 40.81318 | -72.56832 | 16012 ft | 409 kts | 173° |
| 2026-05-06 18:35 | 40.78549 | -72.55937 | 16009 ft | 410 kts | 173° |
| 2026-05-06 18:35 | 40.75756 | -72.55460 | 15997 ft | 398 kts | 189° |
| 2026-05-06 18:35 | 40.73129 | -72.56184 | 16016 ft | 387 kts | 205° |
| 2026-05-06 18:35 | 40.70717 | -72.57718 | 16015 ft | 381 kts | 217° |
| 2026-05-06 18:36 | 40.68677 | -72.59906 | 16025 ft | 377 kts | 225° |
| 2026-05-06 18:36 | 40.66790 | -72.62253 | 16028 ft | 376 kts | 226° |
| 2026-05-06 18:36 | 40.64908 | -72.64643 | 16005 ft | 376 kts | 226° |
| 2026-05-06 18:36 | 40.63009 | -72.67014 | 16010 ft | 376 kts | 225° |
| 2026-05-06 18:37 | 40.61082 | -72.69357 | 16003 ft | 376 kts | 225° |
| 2026-05-06 18:37 | 40.59153 | -72.71693 | 16011 ft | 376 kts | 225° |
| 2026-05-06 18:37 | 40.57227 | -72.74031 | 16007 ft | 376 kts | 225° |
| 2026-05-06 18:37 | 40.55307 | -72.76366 | 16008 ft | 376 kts | 225° |
| 2026-05-06 18:38 | 40.53381 | -72.78705 | 16004 ft | 376 kts | 225° |
| 2026-05-06 18:38 | 40.51482 | -72.81009 | 16003 ft | 377 kts | 225° |
| 2026-05-06 18:38 | 40.49554 | -72.83341 | 16004 ft | 377 kts | 225° |
| 2026-05-06 18:38 | 40.47620 | -72.85676 | 15988 ft | 377 kts | 225° |
| 2026-05-06 18:39 | 40.45688 | -72.88009 | 15997 ft | 378 kts | 225° |
| 2026-05-06 18:39 | 40.43747 | -72.90351 | 16003 ft | 379 kts | 225° |
| 2026-05-06 18:39 | 40.41805 | -72.92691 | 16006 ft | 379 kts | 225° |
| 2026-05-06 18:40 | 40.37908 | -72.97373 | 16008 ft | 380 kts | 225° |
| 2026-05-06 18:40 | 40.35951 | -72.99721 | 16001 ft | 380 kts | 225° |
| 2026-05-06 18:40 | 40.34001 | -73.02059 | 16000 ft | 380 kts | 225° |
| 2026-05-06 18:40 | 40.32048 | -73.04399 | 15997 ft | 380 kts | 225° |
| 2026-05-06 18:41 | 40.30109 | -73.06740 | 15971 ft | 379 kts | 226° |
| 2026-05-06 18:41 | 40.28170 | -73.09089 | 15982 ft | 379 kts | 226° |
| 2026-05-06 18:41 | 40.26253 | -73.11407 | 15987 ft | 380 kts | 226° |
| 2026-05-06 18:41 | 40.24307 | -73.13753 | 15996 ft | 381 kts | 225° |
| 2026-05-06 18:42 | 40.22352 | -73.16098 | 15986 ft | 382 kts | 225° |
| 2026-05-06 18:42 | 40.20389 | -73.18447 | 15996 ft | 382 kts | 225° |
| 2026-05-06 18:42 | 40.18429 | -73.20792 | 15996 ft | 382 kts | 225° |
| 2026-05-06 18:42 | 40.16463 | -73.23145 | 15992 ft | 382 kts | 225° |
| 2026-05-06 18:43 | 40.14498 | -73.25494 | 15989 ft | 382 kts | 225° |
| 2026-05-06 18:43 | 40.12532 | -73.27842 | 15986 ft | 382 kts | 225° |
| 2026-05-06 18:43 | 40.10561 | -73.30189 | 15993 ft | 382 kts | 226° |
| 2026-05-06 18:43 | 40.08613 | -73.32496 | 15998 ft | 382 kts | 225° |
| 2026-05-06 18:44 | 40.06642 | -73.34825 | 15990 ft | 383 kts | 225° |
| 2026-05-06 18:44 | 40.04665 | -73.37158 | 15981 ft | 382 kts | 225° |
| 2026-05-06 18:44 | 40.02690 | -73.39488 | 15983 ft | 382 kts | 225° |
| 2026-05-06 18:44 | 40.00718 | -73.41814 | 15983 ft | 382 kts | 225° |
| 2026-05-06 18:45 | 39.98747 | -73.44138 | 15983 ft | 382 kts | 225° |
| 2026-05-06 18:45 | 39.96776 | -73.46461 | 15989 ft | 382 kts | 225° |
| 2026-05-06 18:45 | 39.94807 | -73.48781 | 15987 ft | 382 kts | 225° |
| 2026-05-06 18:45 | 39.93500 | -73.50318 | 15969 ft | 382 kts | 225° |
| 2026-05-06 18:46 | 39.90860 | -73.53426 | 15976 ft | 382 kts | 226° |
| 2026-05-06 18:46 | 39.89017 | -73.55904 | 15984 ft | 380 kts | 233° |
| 2026-05-06 18:46 | 39.87357 | -73.58593 | 15989 ft | 380 kts | 234° |
| 2026-05-06 18:46 | 39.85728 | -73.61257 | 15988 ft | 381 kts | 234° |
| 2026-05-06 18:47 | 39.84058 | -73.63944 | 15985 ft | 381 kts | 233° |
| 2026-05-06 18:47 | 39.82379 | -73.66613 | 15999 ft | 381 kts | 233° |
| 2026-05-06 18:47 | 39.80696 | -73.69276 | 15989 ft | 380 kts | 233° |
| 2026-05-06 18:47 | 39.79023 | -73.71924 | 15982 ft | 378 kts | 233° |
| 2026-05-06 18:48 | 39.77352 | -73.74571 | 15976 ft | 377 kts | 233° |
| 2026-05-06 18:48 | 39.75690 | -73.77203 | 15965 ft | 376 kts | 233° |
| 2026-05-06 18:48 | 39.74029 | -73.79831 | 15971 ft | 376 kts | 233° |
| 2026-05-06 18:48 | 39.72368 | -73.82459 | 15974 ft | 377 kts | 233° |
| 2026-05-06 18:49 | 39.70702 | -73.85093 | 15979 ft | 377 kts | 233° |
| 2026-05-06 18:49 | 39.69031 | -73.87732 | 15981 ft | 378 kts | 233° |
| 2026-05-06 18:49 | 39.67380 | -73.90337 | 15979 ft | 379 kts | 233° |
| 2026-05-06 18:49 | 39.65700 | -73.92986 | 15981 ft | 379 kts | 233° |
| 2026-05-06 18:50 | 39.64021 | -73.95631 | 15974 ft | 380 kts | 233° |
| 2026-05-06 18:50 | 39.62338 | -73.98279 | 15975 ft | 380 kts | 233° |
| 2026-05-06 18:50 | 39.60659 | -74.00919 | 15988 ft | 380 kts | 233° |
| 2026-05-06 18:50 | 39.58983 | -74.03554 | 15929 ft | 374 kts | 233° |
| 2026-05-06 18:51 | 39.57341 | -74.06137 | 15665 ft | 369 kts | 233° |
| 2026-05-06 18:51 | 39.55703 | -74.08712 | 15427 ft | 370 kts | 233° |
| 2026-05-06 18:51 | 39.54087 | -74.11306 | 15190 ft | 368 kts | 237° |
| 2026-05-06 18:51 | 39.52996 | -74.14221 | 14950 ft | 365 kts | 252° |
| 2026-05-06 18:52 | 39.52464 | -74.17423 | 14717 ft | 364 kts | 263° |
| 2026-05-06 18:52 | 39.52415 | -74.20715 | 14495 ft | 365 kts | 269° |
| 2026-05-06 18:52 | 39.52487 | -74.24002 | 14260 ft | 365 kts | 269° |
| 2026-05-06 18:52 | 39.52580 | -74.27292 | 14029 ft | 366 kts | 269° |
| 2026-05-06 18:53 | 39.52670 | -74.30588 | 13705 ft | 368 kts | 269° |
| 2026-05-06 18:53 | 39.52750 | -74.33902 | 13026 ft | 363 kts | 269° |
| 2026-05-06 18:53 | 39.52821 | -74.37128 | 12403 ft | 354 kts | 269° |
| 2026-05-06 18:53 | 39.52883 | -74.40304 | 11791 ft | 351 kts | 269° |
| 2026-05-06 18:54 | 39.52940 | -74.43468 | 11173 ft | 349 kts | 269° |
| 2026-05-06 18:54 | 39.52993 | -74.46559 | 10717 ft | 342 kts | 268° |
| 2026-05-06 18:54 | 39.53045 | -74.49554 | 10373 ft | 322 kts | 268° |
| 2026-05-06 18:54 | 39.53094 | -74.52358 | 10089 ft | 301 kts | 268° |
| 2026-05-06 18:55 | 39.53138 | -74.54980 | 9841 ft | 282 kts | 268° |
| 2026-05-06 18:55 | 39.53177 | -74.57449 | 9575 ft | 266 kts | 268° |
| 2026-05-06 18:55 | 39.53214 | -74.59782 | 9306 ft | 252 kts | 268° |
| 2026-05-06 18:55 | 39.53247 | -74.62015 | 9109 ft | 247 kts | 268° |
| 2026-05-06 18:56 | 39.53278 | -74.64249 | 9075 ft | 247 kts | 268° |
| 2026-05-06 18:56 | 39.53311 | -74.66437 | 9046 ft | 246 kts | 267° |
| 2026-05-06 18:56 | 39.53343 | -74.68663 | 9043 ft | 246 kts | 267° |
| 2026-05-06 18:56 | 39.53376 | -74.70871 | 9036 ft | 245 kts | 268° |
| 2026-05-06 18:57 | 39.53408 | -74.73076 | 9039 ft | 245 kts | 268° |
| 2026-05-06 18:57 | 39.53439 | -74.75277 | 9039 ft | 245 kts | 268° |
| 2026-05-06 18:57 | 39.53471 | -74.77497 | 9037 ft | 246 kts | 268° |
| 2026-05-06 18:57 | 39.53506 | -74.79817 | 9064 ft | 276 kts | 268° |
| 2026-05-06 18:58 | 39.53544 | -74.82481 | 9044 ft | 306 kts | 268° |
| 2026-05-06 18:58 | 39.53591 | -74.85143 | 9014 ft | 289 kts | 268° |
| 2026-05-06 18:58 | 39.53636 | -74.87633 | 9001 ft | 263 kts | 268° |
| 2026-05-06 18:58 | 39.53673 | -74.89905 | 9005 ft | 243 kts | 268° |
| 2026-05-06 18:59 | 39.53705 | -74.92080 | 9018 ft | 241 kts | 267° |
| 2026-05-06 18:59 | 39.53743 | -74.94242 | 9017 ft | 240 kts | 270° |
| 2026-05-06 18:59 | 39.54236 | -74.96339 | 9024 ft | 251 kts | 292° |
| 2026-05-06 18:59 | 39.55311 | -74.98168 | 8978 ft | 264 kts | 308° |
| 2026-05-06 19:00 | 39.56798 | -74.99712 | 8452 ft | 280 kts | 316° |
| 2026-05-06 19:00 | 39.58397 | -75.01143 | 7949 ft | 277 kts | 317° |
| 2026-05-06 19:00 | 39.59978 | -75.02547 | 7455 ft | 273 kts | 316° |
| 2026-05-06 19:00 | 39.61007 | -75.03477 | 7133 ft | 271 kts | 316° |
| 2026-05-06 19:01 | 39.62538 | -75.04884 | 6651 ft | 268 kts | 315° |
| 2026-05-06 19:01 | 39.64052 | -75.06290 | 6203 ft | 265 kts | 316° |
| 2026-05-06 19:01 | 39.66016 | -75.08111 | 6058 ft | 264 kts | 318° |
| 2026-05-06 19:01 | 39.67158 | -75.08832 | 6000 ft | 277 kts | 338° |
| 2026-05-06 19:02 | 39.69091 | -75.08972 | 6008 ft | 287 kts | 358° |
| 2026-05-06 19:02 | 39.71083 | -75.08649 | 5778 ft | 292 kts | 1° |
| 2026-05-06 19:02 | 39.73061 | -75.07855 | 5274 ft | 305 kts | 27° |
| 2026-05-06 19:02 | 39.74646 | -75.06020 | 4863 ft | 305 kts | 44° |
| 2026-05-06 19:03 | 39.76067 | -75.03957 | 4385 ft | 307 kts | 46° |
| 2026-05-06 19:03 | 39.77489 | -75.01876 | 3829 ft | 308 kts | 46° |
| 2026-05-06 19:03 | 39.78907 | -74.99823 | 3312 ft | 310 kts | 46° |
| 2026-05-06 19:03 | 39.80338 | -74.97774 | 3083 ft | 302 kts | 46° |
| 2026-05-06 19:04 | 39.81721 | -74.95800 | 2987 ft | 286 kts | 46° |
| 2026-05-06 19:04 | 39.83014 | -74.93941 | 2966 ft | 268 kts | 50° |
| 2026-05-06 19:04 | 39.83834 | -74.91837 | 3000 ft | 260 kts | 79° |
| 2026-05-06 19:04 | 39.84415 | -74.89602 | 2971 ft | 265 kts | 57° |
| 2026-05-06 19:05 | 39.85767 | -74.88061 | 3003 ft | 258 kts | 16° |
| 2026-05-06 19:05 | 39.87472 | -74.87756 | 3014 ft | 242 kts | 347° |
| 2026-05-06 19:05 | 39.89136 | -74.87868 | 2995 ft | 243 kts | 348° |
| 2026-05-06 19:05 | 39.90822 | -74.87967 | 2989 ft | 242 kts | 347° |
| 2026-05-06 19:06 | 39.92374 | -74.88507 | 2979 ft | 221 kts | 314° |
| 2026-05-06 19:06 | 39.93188 | -74.89988 | 2985 ft | 191 kts | 271° |
| 2026-05-06 19:06 | 39.93149 | -74.91651 | 3003 ft | 184 kts | 258° |
| 2026-05-06 19:06 | 39.93006 | -74.93302 | 3001 ft | 181 kts | 258° |
| 2026-05-06 19:07 | 39.92844 | -74.94900 | 3006 ft | 174 kts | 254° |
| 2026-05-06 19:07 | 39.92602 | -74.96417 | 3005 ft | 167 kts | 252° |
| 2026-05-06 19:07 | 39.92344 | -74.97861 | 2983 ft | 159 kts | 252° |
| 2026-05-06 19:07 | 39.92086 | -74.99235 | 2987 ft | 159 kts | 251° |
| 2026-05-06 19:08 | 39.91815 | -75.00646 | 2993 ft | 162 kts | 251° |
| 2026-05-06 19:08 | 39.91535 | -75.02080 | 2998 ft | 163 kts | 251° |
| 2026-05-06 19:08 | 39.91255 | -75.03505 | 2980 ft | 161 kts | 251° |
| 2026-05-06 19:08 | 39.90974 | -75.04969 | 2725 ft | 169 kts | 251° |
| 2026-05-06 19:09 | 39.90690 | -75.06423 | 2475 ft | 160 kts | 251° |
| 2026-05-06 19:09 | 39.90417 | -75.07795 | 2277 ft | 151 kts | 251° |
| 2026-05-06 19:09 | 39.90168 | -75.09042 | 2081 ft | 133 kts | 250° |
| 2026-05-06 19:09 | 39.89949 | -75.10136 | 1903 ft | 123 kts | 249° |
| 2026-05-06 19:10 | 39.89738 | -75.11188 | 1747 ft | 122 kts | 250° |
| 2026-05-06 19:10 | 39.89525 | -75.12245 | 1598 ft | 120 kts | 250° |
| 2026-05-06 19:10 | 39.89313 | -75.13310 | 1418 ft | 122 kts | 250° |
| 2026-05-06 19:10 | 39.89097 | -75.14382 | 1267 ft | 123 kts | 250° |
| 2026-05-06 19:11 | 39.88882 | -75.15462 | 1093 ft | 122 kts | 250° |
| 2026-05-06 19:11 | 39.88668 | -75.16536 | 927 ft | 125 kts | 250° |
| 2026-05-06 19:11 | 39.88444 | -75.17652 | 781 ft | 130 kts | 251° |
| 2026-05-06 19:11 | 39.88227 | -75.18782 | 628 ft | 127 kts | 251° |
| 2026-05-06 19:12 | 39.88021 | -75.19880 | 473 ft | 126 kts | 251° |
| 2026-05-06 19:12 | 39.87786 | -75.20993 | 332 ft | 123 kts | 253° |
| 2026-05-06 19:12 | 39.87573 | -75.22043 | 97 ft | 117 kts | 253° |
| 2026-05-06 19:12 | 39.87380 | -75.22984 | 16 ft | 93 kts | 256° |
| 2026-05-06 19:13 | 39.87259 | -75.23615 | 18 ft | 52 kts | 255° |
| 2026-05-06 19:13 | 39.87242 | -75.23806 | 18 ft | 10 kts | 292° |
| 2026-05-06 19:13 | 39.87294 | -75.23856 | 19 ft | 0 kts | 340° |
| 2026-05-06 19:13 | 39.87301 | -75.23859 | 19 ft | 2 kts | 342° |
| 2026-05-06 19:14 | 39.87327 | -75.23869 | 19 ft | 0 kts | 345° |
| 2026-05-06 19:14 | 39.87333 | -75.23870 | 19 ft | 3 kts | 345° |
| 2026-05-06 19:14 | 39.87392 | -75.23859 | 19 ft | 13 kts | 41° |
| 2026-05-06 19:14 | 39.87425 | -75.23803 | 19 ft | 6 kts | 23° |
| 2026-05-06 19:15 | 39.87467 | -75.23794 | 19 ft | 5 kts | 352° |
| 2026-05-06 19:15 | 39.87488 | -75.23796 | 19 ft | 0 kts | 354° |